createdAt,value
2022-10-26T00:03:42.630Z,6.10
2022-10-26T00:06:12.843Z,6.40
2022-10-26T00:08:40.520Z,6.10
2022-10-26T00:11:08.936Z,5.63
2022-10-26T00:13:38.408Z,5.90
2022-10-26T00:16:18.794Z,5.80
2022-10-26T00:18:47.280Z,6.40
2022-10-26T00:21:15.488Z,6.50
2022-10-26T00:23:43.526Z,5.78
2022-10-26T00:26:12.658Z,5.82
2022-10-26T00:28:40.650Z,6.03
2022-10-26T00:31:10.029Z,4.97
2022-10-26T00:33:37.993Z,6.25
2022-10-26T00:36:09.481Z,5.47
2022-10-26T00:38:37.693Z,5.07
2022-10-26T00:41:16.943Z,4.38
2022-10-26T00:43:45.010Z,5.18
2022-10-26T00:46:32.795Z,5.32
2022-10-26T00:49:02.969Z,5.43
2022-10-26T00:51:33.290Z,4.80
2022-10-26T00:54:03.075Z,4.60
2022-10-26T00:56:32.730Z,4.87
2022-10-26T00:59:04.500Z,5.40
2022-10-26T01:01:34.342Z,4.88
2022-10-26T01:04:02.970Z,4.30
2022-10-26T01:06:32.139Z,4.30
2022-10-26T01:09:00.320Z,4.50
2022-10-26T01:11:27.917Z,4.40
2022-10-26T01:13:56.792Z,4.63
2022-10-26T01:16:27.459Z,4.25
2022-10-26T01:18:58.189Z,4.10
2022-10-26T01:21:49.609Z,4.43
2022-10-26T01:24:35.224Z,4.30
2022-10-26T01:27:02.982Z,4.22
2022-10-26T01:29:43.136Z,4.03
2022-10-26T01:32:25.000Z,4.72
2022-10-26T01:35:01.808Z,4.28
2022-10-26T01:37:32.047Z,3.63
2022-10-26T01:40:04.181Z,3.97
2022-10-26T01:42:32.858Z,4.10
2022-10-26T01:45:08.820Z,4.05
2022-10-26T01:47:41.733Z,4.03
2022-10-26T01:50:10.660Z,4.10
2022-10-26T01:52:38.356Z,4.65
2022-10-26T01:55:08.036Z,4.38
2022-10-26T01:57:37.980Z,5.13
2022-10-26T02:00:10.485Z,5.55
2022-10-26T02:02:38.933Z,5.00
2022-10-26T02:05:09.490Z,5.68
2022-10-26T02:10:12.312Z,5.40
2022-10-26T02:12:58.662Z,6.30
2022-10-26T02:15:31.899Z,6.10
2022-10-26T02:18:06.199Z,6.07
2022-10-26T02:20:43.375Z,5.35
2022-10-26T02:23:12.443Z,5.50
2022-10-26T02:25:51.529Z,5.03
2022-10-26T02:28:21.230Z,5.18
2022-10-26T02:30:50.442Z,5.13
2022-10-26T02:33:19.254Z,5.78
2022-10-26T02:35:49.020Z,5.10
2022-10-26T02:38:19.743Z,4.43
2022-10-26T02:40:48.854Z,4.40
2022-10-26T02:43:22.396Z,4.43
2022-10-26T02:45:53.919Z,5.00
2022-10-26T02:48:23.740Z,4.93
2022-10-26T02:51:11.607Z,4.85
2022-10-26T02:53:54.780Z,4.68
2022-10-26T02:56:32.875Z,4.78
2022-10-26T02:59:03.377Z,4.65
2022-10-26T03:01:32.593Z,4.32
2022-10-26T03:04:02.302Z,5.00
2022-10-26T03:06:40.536Z,4.57
2022-10-26T03:09:09.349Z,4.78
2022-10-26T03:11:37.067Z,5.00
2022-10-26T03:14:04.799Z,5.38
2022-10-26T03:16:33.496Z,4.93
2022-10-26T03:19:02.443Z,4.93
2022-10-26T03:21:36.658Z,5.18
2022-10-26T03:24:04.416Z,5.13
2022-10-26T03:26:33.048Z,5.43
2022-10-26T03:29:04.352Z,5.55
2022-10-26T03:31:32.320Z,5.05
2022-10-26T03:34:02.779Z,5.18
2022-10-26T03:36:34.413Z,4.82
2022-10-26T03:39:02.241Z,4.60
2022-10-26T03:41:30.556Z,4.78
2022-10-26T03:43:58.794Z,5.03
2022-10-26T03:46:26.287Z,4.60
2022-10-26T03:48:54.082Z,4.18
2022-10-26T03:51:21.914Z,5.63
2022-10-26T03:53:49.678Z,5.15
2022-10-26T03:56:17.261Z,4.72
2022-10-26T03:58:45.168Z,5.50
2022-10-26T04:01:19.237Z,4.80
2022-10-26T04:03:47.614Z,4.50
2022-10-26T04:06:15.987Z,4.78
2022-10-26T04:08:43.713Z,4.68
2022-10-26T04:11:11.631Z,5.20
2022-10-26T04:13:39.499Z,5.20
2022-10-26T04:16:07.229Z,4.53
2022-10-26T04:18:35.412Z,4.22
2022-10-26T04:21:03.583Z,4.60
2022-10-26T04:23:31.730Z,4.88
2022-10-26T04:26:02.265Z,4.80
2022-10-26T04:31:05.310Z,4.90
2022-10-26T04:33:33.097Z,5.20
2022-10-26T04:36:02.117Z,4.60
2022-10-26T04:38:30.195Z,5.20
2022-10-26T04:40:58.554Z,5.00
2022-10-26T04:43:27.428Z,4.82
2022-10-26T04:46:00.230Z,4.95
2022-10-26T04:48:28.522Z,5.20
2022-10-26T04:51:02.690Z,4.85
2022-10-26T04:53:31.458Z,4.97
2022-10-26T04:56:00.945Z,5.35
2022-10-26T04:58:31.927Z,5.05
2022-10-26T05:01:05.904Z,4.72
2022-10-26T05:03:33.993Z,5.43
2022-10-26T05:06:02.755Z,4.63
2022-10-26T05:08:31.324Z,4.90
2022-10-26T05:11:01.120Z,5.35
2022-10-26T05:13:28.853Z,4.80
2022-10-26T05:15:57.613Z,4.72
2022-10-26T05:18:26.525Z,4.70
2022-10-26T05:20:55.525Z,4.80
2022-10-26T05:23:23.443Z,4.40
2022-10-26T05:25:51.907Z,4.55
2022-10-26T05:28:20.043Z,4.53
2022-10-26T05:30:48.247Z,4.38
2022-10-26T05:33:16.690Z,4.30
2022-10-26T05:35:48.419Z,4.53
2022-10-26T05:38:19.811Z,4.47
2022-10-26T05:40:49.449Z,4.18
2022-10-26T05:43:18.100Z,4.35
2022-10-26T05:45:46.304Z,4.88
2022-10-26T05:48:14.267Z,4.72
2022-10-26T05:50:45.726Z,4.60
2022-10-26T05:53:13.746Z,4.47
2022-10-26T05:55:41.471Z,4.35
2022-10-26T05:58:13.630Z,4.65
2022-10-26T06:01:08.305Z,5.10
2022-10-26T06:03:37.603Z,4.45
2022-10-26T06:06:07.373Z,4.45
2022-10-26T06:08:36.965Z,4.38
2022-10-26T06:11:04.916Z,4.30
2022-10-26T06:13:34.178Z,4.50
2022-10-26T06:16:02.487Z,4.60
2022-10-26T06:18:43.835Z,4.22
2022-10-26T06:21:19.182Z,4.03
2022-10-26T06:23:49.977Z,4.38
2022-10-26T06:26:34.570Z,4.05
2022-10-26T06:29:22.707Z,4.10
2022-10-26T06:31:50.725Z,3.97
2022-10-26T06:34:27.427Z,4.00
2022-10-26T06:36:56.225Z,4.30
2022-10-26T06:39:25.678Z,4.20
2022-10-26T06:41:55.319Z,3.70
2022-10-26T06:44:26.344Z,4.97
2022-10-26T06:46:54.626Z,4.63
2022-10-26T06:49:42.140Z,4.32
2022-10-26T06:52:15.991Z,4.60
2022-10-26T06:54:52.130Z,4.90
2022-10-26T06:57:28.605Z,5.50
2022-10-26T06:59:59.174Z,4.95
2022-10-26T07:02:36.814Z,4.65
2022-10-26T07:05:21.421Z,4.57
2022-10-26T07:07:50.629Z,4.75
2022-10-26T07:10:20.855Z,4.57
2022-10-26T07:12:49.840Z,4.38
2022-10-26T07:15:18.370Z,4.72
2022-10-26T07:17:46.458Z,4.20
2022-10-26T07:20:15.053Z,4.22
2022-10-26T07:22:46.282Z,4.32
2022-10-26T07:25:16.255Z,5.32
2022-10-26T07:27:43.935Z,4.60
2022-10-26T07:30:17.556Z,4.32
2022-10-26T07:32:45.768Z,4.40
2022-10-26T07:35:13.766Z,4.32
2022-10-26T07:37:41.533Z,4.68
2022-10-26T07:40:09.639Z,4.10
2022-10-26T07:42:37.685Z,5.03
2022-10-26T07:45:06.757Z,4.40
2022-10-26T07:47:38.414Z,5.07
2022-10-26T07:50:24.379Z,4.72
2022-10-26T07:52:54.807Z,5.15
2022-10-26T07:55:22.704Z,4.78
2022-10-26T07:57:54.557Z,4.75
2022-10-26T08:00:24.145Z,3.90
2022-10-26T08:02:52.221Z,4.25
2022-10-26T08:05:19.879Z,4.20
2022-10-26T08:07:48.319Z,3.70
2022-10-26T08:10:16.463Z,3.70
2022-10-26T08:12:44.439Z,3.58
2022-10-26T08:15:15.787Z,4.15
2022-10-26T08:17:44.844Z,3.60
2022-10-26T08:20:12.769Z,3.60
2022-10-26T08:22:40.884Z,3.80
2022-10-26T08:25:36.573Z,3.70
2022-10-26T08:28:09.515Z,3.35
2022-10-26T08:30:37.252Z,3.72
2022-10-26T08:33:08.068Z,4.15
2022-10-26T08:35:45.614Z,4.00
2022-10-26T08:38:14.403Z,4.38
2022-10-26T08:40:43.996Z,3.95
2022-10-26T08:43:19.140Z,3.80
2022-10-26T08:46:09.681Z,4.70
2022-10-26T08:51:15.039Z,4.38
2022-10-26T08:53:43.892Z,3.97
2022-10-26T08:56:19.049Z,4.70
2022-10-26T08:58:57.203Z,4.90
2022-10-26T09:01:26.675Z,5.07
2022-10-26T09:03:54.901Z,4.67
2022-10-26T09:06:25.418Z,4.75
2022-10-26T09:11:39.280Z,4.65
2022-10-26T09:14:33.592Z,5.30
2022-10-26T09:17:02.660Z,4.20
2022-10-26T09:20:01.026Z,4.00
2022-10-26T09:23:13.350Z,3.78
2022-10-26T09:25:42.174Z,4.18
2022-10-26T09:28:15.188Z,3.50
2022-10-26T09:30:44.747Z,3.80
2022-10-26T09:33:18.008Z,3.97
2022-10-26T09:35:51.539Z,3.70
2022-10-26T09:38:38.097Z,3.10
2022-10-26T09:41:11.524Z,3.80
2022-10-26T09:44:01.163Z,3.55
2022-10-26T09:47:00.561Z,3.80
2022-10-26T09:49:44.348Z,3.55
2022-10-26T09:52:12.779Z,3.90
2022-10-26T09:54:53.813Z,3.53
2022-10-26T09:57:33.287Z,3.45
2022-10-26T10:00:03.275Z,3.28
2022-10-26T10:02:59.624Z,3.03
2022-10-26T10:05:50.925Z,3.22
2022-10-26T10:08:24.132Z,2.97
2022-10-26T10:11:12.401Z,2.90
2022-10-26T10:13:43.045Z,3.22
2022-10-26T10:16:14.112Z,3.50
2022-10-26T10:18:45.900Z,3.58
2022-10-26T10:21:17.039Z,2.92
2022-10-26T10:23:55.070Z,2.55
2022-10-26T10:26:22.914Z,2.85
2022-10-26T10:29:04.885Z,3.03
2022-10-26T10:31:33.607Z,2.88
2022-10-26T10:34:18.111Z,2.90
2022-10-26T10:36:45.778Z,2.67
2022-10-26T10:39:30.644Z,2.60
2022-10-26T10:42:06.034Z,2.53
2022-10-26T10:44:34.811Z,3.00
2022-10-26T10:47:08.895Z,3.33
2022-10-26T10:49:40.351Z,2.92
2022-10-26T10:52:08.028Z,2.70
2022-10-26T10:54:38.672Z,2.50
2022-10-26T10:57:09.491Z,2.80
2022-10-26T10:59:56.282Z,2.85
2022-10-26T11:02:44.808Z,2.65
2022-10-26T11:05:33.453Z,2.83
2022-10-26T11:08:28.241Z,2.38
2022-10-26T11:11:04.581Z,2.20
2022-10-26T11:13:35.417Z,2.50
2022-10-26T11:16:08.043Z,2.60
2022-10-26T11:18:43.245Z,2.40
2022-10-26T11:21:24.213Z,2.50
2022-10-26T11:23:55.768Z,2.30
2022-10-26T11:26:31.689Z,2.50
2022-10-26T11:29:06.442Z,2.72
2022-10-26T11:31:38.486Z,2.55
2022-10-26T11:34:10.799Z,2.40
2022-10-26T11:36:41.133Z,2.08
2022-10-26T11:39:20.666Z,2.47
2022-10-26T11:41:51.329Z,2.50
2022-10-26T11:44:53.127Z,2.20
2022-10-26T11:47:27.365Z,2.20
2022-10-26T11:50:16.219Z,1.98
2022-10-26T11:52:50.590Z,2.00
2022-10-26T11:55:18.663Z,2.20
2022-10-26T11:57:49.975Z,3.35
2022-10-26T12:00:19.266Z,2.30
2022-10-26T12:03:05.443Z,2.20
2022-10-26T12:05:47.196Z,2.20
2022-10-26T12:08:26.273Z,2.05
2022-10-26T12:11:00.330Z,2.40
2022-10-26T12:13:41.558Z,2.28
2022-10-26T12:16:20.994Z,2.42
2022-10-26T12:18:56.362Z,2.30
2022-10-26T12:21:35.109Z,2.35
2022-10-26T12:24:04.592Z,2.10
2022-10-26T12:26:35.152Z,1.83
2022-10-26T12:29:07.817Z,1.80
2022-10-26T12:31:39.308Z,2.05
2022-10-26T12:34:17.804Z,2.10
2022-10-26T12:36:58.002Z,2.10
2022-10-26T12:39:29.046Z,2.38
2022-10-26T12:42:07.520Z,2.30
2022-10-26T12:44:50.970Z,2.30
2022-10-26T12:47:32.576Z,1.98
2022-10-26T12:50:06.174Z,2.47
2022-10-26T12:53:01.729Z,2.30
2022-10-26T12:55:50.985Z,2.83
2022-10-26T12:58:19.675Z,2.03
2022-10-26T13:00:54.601Z,2.17
2022-10-26T13:03:42.940Z,2.00
2022-10-26T13:06:30.143Z,2.13
2022-10-26T13:09:03.096Z,2.28
2022-10-26T13:11:35.976Z,1.90
2022-10-26T13:14:08.936Z,2.30
2022-10-26T13:16:38.357Z,2.17
2022-10-26T13:19:06.230Z,2.22
2022-10-26T13:21:46.658Z,2.35
2022-10-26T13:27:05.222Z,1.95
2022-10-26T13:29:35.629Z,1.80
2022-10-26T13:32:14.003Z,2.03
2022-10-26T13:34:43.875Z,1.85
2022-10-26T13:37:24.169Z,1.85
2022-10-26T13:39:56.078Z,1.52
2022-10-26T13:42:28.716Z,1.90
2022-10-26T13:45:02.394Z,1.70
2022-10-26T13:47:36.079Z,1.50
2022-10-26T13:50:08.817Z,1.65
2022-10-26T13:52:39.561Z,1.40
2022-10-26T13:55:27.993Z,1.98
2022-10-26T13:58:02.118Z,1.45
2022-10-26T14:00:30.404Z,1.75
2022-10-26T14:02:58.053Z,1.83
2022-10-26T14:05:25.834Z,1.50
2022-10-26T14:08:08.633Z,2.25
2022-10-26T14:10:51.171Z,1.60
2022-10-26T14:13:22.144Z,1.48
2022-10-26T14:15:49.917Z,1.45
2022-10-26T14:18:25.714Z,2.20
2022-10-26T14:21:02.812Z,1.35
2022-10-26T14:23:46.443Z,1.73
2022-10-26T14:26:40.038Z,1.40
2022-10-26T14:29:18.576Z,1.40
2022-10-26T14:31:46.406Z,1.30
2022-10-26T14:34:14.519Z,1.45
2022-10-26T14:36:42.282Z,1.48
2022-10-26T14:39:14.987Z,1.50
2022-10-26T14:41:43.545Z,1.40
2022-10-26T14:44:17.683Z,1.52
2022-10-26T14:46:45.923Z,1.10
2022-10-26T14:49:30.392Z,1.42
2022-10-26T14:51:59.081Z,1.20
2022-10-26T14:54:36.708Z,1.20
2022-10-26T14:57:09.045Z,1.10
2022-10-26T14:59:39.962Z,1.40
2022-10-26T15:02:25.075Z,1.30
2022-10-26T15:05:01.416Z,1.27
2022-10-26T15:07:36.852Z,1.10
2022-10-26T15:10:17.113Z,0.98
2022-10-26T15:12:48.976Z,1.30
2022-10-26T15:17:51.890Z,1.30
2022-10-26T15:20:21.050Z,1.30
2022-10-26T15:22:58.324Z,1.20
2022-10-26T15:25:28.379Z,1.20
2022-10-26T15:27:56.495Z,1.50
2022-10-26T15:30:26.541Z,1.30
2022-10-26T15:32:56.285Z,1.20
2022-10-26T15:35:25.763Z,1.30
2022-10-26T15:37:54.269Z,1.20
2022-10-26T15:40:22.927Z,1.33
2022-10-26T15:42:52.224Z,1.25
2022-10-26T15:45:24.979Z,1.42
2022-10-26T15:47:53.820Z,1.30
2022-10-26T15:50:28.957Z,1.30
2022-10-26T15:53:02.453Z,1.20
2022-10-26T15:55:32.418Z,1.23
2022-10-26T15:58:01.442Z,1.55
2022-10-26T16:00:30.355Z,1.15
2022-10-26T16:02:58.803Z,1.42
2022-10-26T16:05:26.472Z,1.45
2022-10-26T16:07:54.231Z,1.15
2022-10-26T16:10:23.762Z,1.27
2022-10-26T16:12:52.043Z,1.60
2022-10-26T16:15:21.351Z,1.13
2022-10-26T16:17:50.089Z,1.40
2022-10-26T16:20:20.297Z,1.88
2022-10-26T16:22:49.311Z,1.30
2022-10-26T16:25:18.186Z,1.30
2022-10-26T16:27:46.281Z,1.25
2022-10-26T16:30:15.796Z,1.40
2022-10-26T16:32:43.988Z,1.58
2022-10-26T16:35:11.926Z,1.58
2022-10-26T16:37:39.799Z,1.50
2022-10-26T16:40:08.765Z,1.42
2022-10-26T16:42:39.280Z,1.70
2022-10-26T16:45:08.422Z,1.42
2022-10-26T16:47:37.582Z,1.33
2022-10-26T16:50:05.667Z,1.30
2022-10-26T16:52:35.074Z,1.67
2022-10-26T16:55:05.641Z,1.35
2022-10-26T16:57:34.399Z,1.83
2022-10-26T17:00:02.571Z,1.95
2022-10-26T17:02:31.648Z,1.60
2022-10-26T17:05:05.882Z,1.75
2022-10-26T17:07:35.636Z,1.40
2022-10-26T17:10:03.623Z,1.60
2022-10-26T17:12:35.744Z,1.38
2022-10-26T17:15:05.365Z,1.83
2022-10-26T17:17:33.882Z,2.10
2022-10-26T17:20:02.979Z,1.90
2022-10-26T17:22:32.079Z,1.88
2022-10-26T17:25:04.145Z,1.73
2022-10-26T17:27:35.176Z,1.90
2022-10-26T17:30:03.789Z,1.65
2022-10-26T17:32:32.349Z,1.90
2022-10-26T17:35:04.232Z,1.70
2022-10-26T17:37:32.778Z,1.63
2022-10-26T17:40:01.876Z,2.00
2022-10-26T17:42:31.179Z,2.20
2022-10-26T17:44:58.787Z,2.70
2022-10-26T17:50:07.799Z,2.72
2022-10-26T17:52:35.699Z,2.47
2022-10-26T17:55:03.535Z,2.70
2022-10-26T17:57:31.521Z,2.03
2022-10-26T18:00:01.518Z,2.22
2022-10-26T18:02:40.526Z,2.13
2022-10-26T18:05:08.856Z,2.35
2022-10-26T18:07:36.441Z,2.80
2022-10-26T18:10:19.643Z,2.67
2022-10-26T18:12:53.284Z,2.40
2022-10-26T18:15:28.172Z,2.53
2022-10-26T18:18:01.007Z,2.50
2022-10-26T18:20:30.979Z,2.55
2022-10-26T18:23:01.603Z,2.47
2022-10-26T18:25:30.529Z,2.33
2022-10-26T18:27:58.638Z,2.72
2022-10-26T18:30:31.103Z,2.70
2022-10-26T18:32:58.864Z,2.53
2022-10-26T18:35:27.662Z,2.90
2022-10-26T18:37:57.191Z,3.28
2022-10-26T18:40:25.109Z,2.80
2022-10-26T18:42:52.828Z,2.80
2022-10-26T18:45:20.383Z,2.67
2022-10-26T18:47:48.362Z,3.08
2022-10-26T18:50:16.333Z,2.90
2022-10-26T18:52:44.160Z,3.38
2022-10-26T18:55:12.489Z,3.22
2022-10-26T18:57:40.695Z,2.95
2022-10-26T19:00:09.119Z,3.17
2022-10-26T19:02:37.091Z,3.33
2022-10-26T19:05:05.092Z,3.88
2022-10-26T19:07:32.696Z,3.50
2022-10-26T19:10:01.272Z,3.30
2022-10-26T19:12:29.031Z,3.72
2022-10-26T19:14:58.829Z,2.70
2022-10-26T19:17:26.340Z,3.15
2022-10-26T19:19:54.539Z,3.10
2022-10-26T19:22:25.205Z,4.03
2022-10-26T19:24:52.992Z,3.17
2022-10-26T19:27:21.066Z,3.42
2022-10-26T19:29:48.778Z,3.80
2022-10-26T19:32:16.458Z,3.70
2022-10-26T19:34:44.235Z,3.35
2022-10-26T19:37:11.951Z,4.03
2022-10-26T19:39:40.002Z,4.03
2022-10-26T19:42:08.072Z,3.00
2022-10-26T19:44:35.795Z,3.60
2022-10-26T19:47:05.518Z,3.53
2022-10-26T19:49:33.563Z,3.53
2022-10-26T19:52:03.050Z,3.25
2022-10-26T19:54:32.215Z,3.42
2022-10-26T19:57:00.979Z,3.20
2022-10-26T19:59:28.634Z,2.88
2022-10-26T20:01:58.306Z,3.63
2022-10-26T20:04:26.130Z,3.72
2022-10-26T20:06:53.950Z,4.35
2022-10-26T20:09:21.424Z,4.07
2022-10-26T20:11:50.819Z,3.60
2022-10-26T20:14:20.772Z,3.63
2022-10-26T20:16:59.035Z,3.47
2022-10-26T20:19:28.215Z,4.38
2022-10-26T20:21:56.827Z,4.32
2022-10-26T20:24:24.769Z,3.42
2022-10-26T20:26:52.565Z,3.60
2022-10-26T20:29:22.181Z,4.00
2022-10-26T20:31:56.066Z,4.15
2022-10-26T20:37:00.620Z,3.25
2022-10-26T20:39:30.612Z,3.97
2022-10-26T20:41:58.488Z,4.03
2022-10-26T20:44:30.738Z,4.13
2022-10-26T20:46:59.399Z,4.65
2022-10-26T20:49:27.911Z,4.50
2022-10-26T20:52:20.646Z,4.93
2022-10-26T20:55:02.040Z,4.43
2022-10-26T20:57:31.730Z,4.18
2022-10-26T21:00:10.333Z,4.32
2022-10-26T21:02:38.025Z,4.40
2022-10-26T21:05:06.382Z,3.60
2022-10-26T21:07:34.456Z,3.75
2022-10-26T21:10:03.145Z,3.80
2022-10-26T21:12:32.446Z,3.60
2022-10-26T21:15:00.453Z,3.92
2022-10-26T21:17:28.685Z,3.92
2022-10-26T21:19:56.506Z,3.75
2022-10-26T21:22:24.975Z,3.90
2022-10-26T21:24:53.277Z,3.80
2022-10-26T21:27:20.926Z,3.35
2022-10-26T21:29:48.632Z,4.45
2022-10-26T21:32:16.350Z,4.53
2022-10-26T21:34:44.318Z,4.07
2022-10-26T21:37:14.256Z,3.88
2022-10-26T21:39:42.130Z,3.90
2022-10-26T21:42:10.171Z,3.85
2022-10-26T21:44:41.779Z,4.22
2022-10-26T21:47:10.657Z,3.85
2022-10-26T21:49:38.670Z,3.40
2022-10-26T21:52:07.163Z,3.60
2022-10-26T21:54:34.887Z,4.13
2022-10-26T21:57:03.382Z,4.65
2022-10-26T21:59:31.964Z,4.57
2022-10-26T22:02:00.641Z,4.30
2022-10-26T22:04:31.593Z,4.18
2022-10-26T22:07:00.929Z,4.00
2022-10-26T22:09:28.732Z,4.35
2022-10-26T22:11:58.734Z,4.00
2022-10-26T22:14:26.918Z,4.30
2022-10-26T22:16:54.776Z,5.22
2022-10-26T22:19:22.709Z,4.75
2022-10-26T22:21:50.277Z,4.75
2022-10-26T22:24:17.983Z,5.00
2022-10-26T22:26:45.695Z,4.22
2022-10-26T22:29:13.485Z,4.70
2022-10-26T22:31:42.166Z,4.78
2022-10-26T22:34:14.147Z,4.88
2022-10-26T22:36:42.411Z,4.95
2022-10-26T22:39:11.420Z,4.50
2022-10-26T22:41:39.741Z,4.40
2022-10-26T22:44:07.926Z,4.05
2022-10-26T22:46:35.456Z,5.05
2022-10-26T22:49:03.766Z,4.47
2022-10-26T22:51:35.636Z,4.55
2022-10-26T22:54:04.763Z,5.07
2022-10-26T22:56:33.075Z,4.30
2022-10-26T22:59:01.885Z,4.28
2022-10-26T23:01:32.937Z,4.50
2022-10-26T23:04:01.979Z,4.72
2022-10-26T23:06:31.529Z,4.18
2022-10-26T23:09:01.676Z,4.60
2022-10-26T23:11:31.220Z,4.43
2022-10-26T23:14:00.303Z,4.78
2022-10-26T23:16:29.321Z,5.00
2022-10-26T23:18:58.655Z,4.63
2022-10-26T23:21:30.061Z,4.70
2022-10-26T23:24:00.173Z,4.50
2022-10-26T23:26:27.956Z,4.68
2022-10-26T23:28:56.329Z,4.85
2022-10-26T23:31:25.772Z,4.45
2022-10-26T23:33:54.792Z,4.78
2022-10-26T23:36:23.719Z,4.50
2022-10-26T23:38:51.987Z,4.70
2022-10-26T23:41:19.796Z,4.43
2022-10-26T23:43:48.503Z,4.55
2022-10-26T23:46:16.590Z,4.68
2022-10-26T23:48:45.792Z,4.20
2022-10-26T23:51:13.621Z,5.18
2022-10-26T23:53:41.347Z,5.05
2022-10-26T23:56:09.245Z,4.45
2022-10-26T23:58:37.299Z,4.78
